Bogata, Texas
Current Conditions -  °F | °C
As of 8:35 PM on Wednesday 22 Oct 2014 (Local Time) from KPRX Reporting Station
Clear Clear  
Wind Chill: 63°   Ceiling: Unl
Heat Index: 63°   Visibility: 5mi
Dew Point: 48°   Wind: 8mph
Humidity: 59%   Direction: 100°E
Pressure: 30.14"   Gusts: NA
Location:  33.47°N, 95.21°W
Report Text: KPRX 230135Z 10007KT 5SM CLR 17/09 A3014 RMK AO1
Loading
Personal Weather Stations






























Interactive Weather Map
Tropical Storm Tracking
New forecast layout! Learn more

10-Day Weather Forecast

Advertisements
Track Severe Weather on mobile